Portada
METAR-TAF:

METAR-TAF

Aeroports :

Ballina, Austràlia

latitud: 28-50-00S, longitud: 153-33-42E, altitud: 2 m

Observació

L'informe es va fer fa 1 hora i 6 minuts, a les 03:00 UTC
Vent 12 kt del Nord-Est
Temperatura 21°C
Humitat 49%
Pressió 1020 hPa
Visibilitat 10 km o més

METAR: YBNA 300300Z AUTO 05012KT 9999 // NCD 21/10 Q1020

Hora: 14:06 (04:06 UTC)


TAF: manca

Observacions i pronòstics meteorològics de més de 4000 aeroports (METAR i TAF).

Les estacions disponibles són els punts grocs i vermells al mapa.

Posi el ratolí al punt desitjat per veure el nom de l'estació.

Feu clic per veure les observacions i els pronòstics meteorològics.

Per canviar el mapa: feu clic els botons verds amb una creu de color negre per apropar; al botó verd amb un guió per allunyar la imatge; o en les fletxes verdes per a mapes adjacents.


METAR-TAF: